createdAt,value
2022-12-01T00:01:29.497Z,1.77
2022-12-01T00:03:57.396Z,1.67
2022-12-01T00:06:26.870Z,1.47
2022-12-01T00:09:16.518Z,1.61
2022-12-01T00:11:47.170Z,1.50
2022-12-01T00:14:16.323Z,1.60
2022-12-01T00:16:44.683Z,1.68
2022-12-01T00:19:12.591Z,1.54
2022-12-01T00:21:41.841Z,1.81
2022-12-01T00:24:11.383Z,1.95
2022-12-01T00:26:40.149Z,1.95
2022-12-01T00:29:08.184Z,1.75
2022-12-01T00:31:36.401Z,1.79
2022-12-01T00:34:08.225Z,1.84
2022-12-01T00:36:38.853Z,1.79
2022-12-01T00:39:08.192Z,1.84
2022-12-01T00:41:35.913Z,1.95
2022-12-01T00:44:03.694Z,2.00
2022-12-01T00:46:31.484Z,1.89
2022-12-01T00:48:59.457Z,1.86
2022-12-01T00:51:27.417Z,1.93
2022-12-01T00:53:55.257Z,1.69
2022-12-01T00:56:24.568Z,1.64
2022-12-01T00:58:52.409Z,1.69
2022-12-01T01:01:20.720Z,1.66
2022-12-01T01:03:48.788Z,1.53
2022-12-01T01:06:16.835Z,1.70
2022-12-01T01:08:44.724Z,1.65
2022-12-01T01:11:12.548Z,1.84
2022-12-01T01:13:41.834Z,1.89
2022-12-01T01:16:15.551Z,1.74
2022-12-01T01:18:43.598Z,1.87
2022-12-01T01:21:13.975Z,1.94
2022-12-01T01:23:41.956Z,2.02
2022-12-01T01:26:13.865Z,2.02
2022-12-01T01:28:43.120Z,2.08
2022-12-01T01:31:13.003Z,2.02
2022-12-01T01:33:41.325Z,2.07
2022-12-01T01:36:09.230Z,2.12
2022-12-01T01:38:37.801Z,1.84
2022-12-01T01:41:06.725Z,1.92
2022-12-01T01:43:50.268Z,1.91
2022-12-01T01:46:19.554Z,1.78
2022-12-01T01:48:51.238Z,1.88
2022-12-01T01:51:23.448Z,1.70
2022-12-01T01:53:56.062Z,1.83
2022-12-01T01:56:24.468Z,1.71
2022-12-01T01:58:54.343Z,1.41
2022-12-01T02:01:23.010Z,1.44
2022-12-01T02:03:53.331Z,1.45
2022-12-01T02:06:21.739Z,1.39
2022-12-01T02:08:49.697Z,1.36
2022-12-01T02:11:52.973Z,1.32
2022-12-01T02:14:40.436Z,1.45
2022-12-01T02:17:20.836Z,1.59
2022-12-01T02:20:12.695Z,1.46
2022-12-01T02:22:54.016Z,1.69
2022-12-01T02:25:36.082Z,1.61
2022-12-01T02:28:25.980Z,1.58
2022-12-01T02:30:59.774Z,1.37
2022-12-01T02:33:33.869Z,1.22
2022-12-01T02:36:04.410Z,1.40
2022-12-01T02:38:37.357Z,1.41
2022-12-01T02:41:11.792Z,1.37
2022-12-01T02:43:46.583Z,1.35
2022-12-01T02:46:19.689Z,1.45
2022-12-01T02:48:52.548Z,1.31
2022-12-01T02:51:24.902Z,1.18
2022-12-01T02:53:53.626Z,0.89
2022-12-01T02:56:23.867Z,0.98
2022-12-01T02:58:54.601Z,1.11
2022-12-01T03:01:41.294Z,1.12
2022-12-01T03:04:25.810Z,1.21
2022-12-01T03:07:00.422Z,1.32
2022-12-01T03:09:38.558Z,1.23
2022-12-01T03:12:16.869Z,1.23
2022-12-01T03:14:52.569Z,1.28
2022-12-01T03:17:28.195Z,1.31
2022-12-01T03:20:01.941Z,1.18
2022-12-01T03:22:37.352Z,1.22
2022-12-01T03:25:06.362Z,1.30
2022-12-01T03:27:38.584Z,1.08
2022-12-01T03:30:10.777Z,0.99
2022-12-01T03:32:47.374Z,0.98
2022-12-01T03:35:17.768Z,1.12
2022-12-01T03:37:52.116Z,1.00
2022-12-01T03:40:25.529Z,0.85
2022-12-01T03:42:57.561Z,0.85
2022-12-01T03:45:32.637Z,0.94
2022-12-01T03:48:02.308Z,0.63
2022-12-01T03:50:37.713Z,0.71
2022-12-01T03:53:11.395Z,0.72
2022-12-01T03:55:45.776Z,0.58
2022-12-01T03:58:18.240Z,0.88
2022-12-01T04:00:49.874Z,1.03
2022-12-01T04:03:20.643Z,0.97
2022-12-01T04:05:48.463Z,1.09
2022-12-01T04:08:17.656Z,0.95
2022-12-01T04:10:45.469Z,1.04
2022-12-01T04:13:22.117Z,1.13
2022-12-01T04:15:51.310Z,0.89
2022-12-01T04:18:21.087Z,1.00
2022-12-01T04:20:49.091Z,0.96
2022-12-01T04:23:30.821Z,0.92
2022-12-01T04:26:00.213Z,1.01
2022-12-01T04:28:28.065Z,1.19
2022-12-01T04:30:55.978Z,1.07
2022-12-01T04:33:25.319Z,1.07
2022-12-01T04:35:59.488Z,1.11
2022-12-01T04:38:30.870Z,1.18
2022-12-01T04:40:58.987Z,0.81
2022-12-01T04:43:26.867Z,0.89
2022-12-01T04:45:54.952Z,0.83
2022-12-01T04:48:22.834Z,1.02
2022-12-01T04:50:52.289Z,1.06
2022-12-01T04:53:20.193Z,0.93
2022-12-01T04:55:48.079Z,0.99
2022-12-01T04:58:16.001Z,1.21
2022-12-01T05:00:43.798Z,1.25
2022-12-01T05:03:15.016Z,1.09
2022-12-01T05:05:43.191Z,1.05
2022-12-01T05:08:12.674Z,0.95
2022-12-01T05:10:40.475Z,0.99
2022-12-01T05:13:08.324Z,1.16
2022-12-01T05:15:36.136Z,1.18
2022-12-01T05:18:03.837Z,1.23
2022-12-01T05:20:49.555Z,1.18
2022-12-01T05:23:18.648Z,1.27
2022-12-01T05:25:46.499Z,1.08
2022-12-01T05:28:14.339Z,0.98
2022-12-01T05:30:42.053Z,0.94
2022-12-01T05:33:09.944Z,1.04
2022-12-01T05:35:37.718Z,0.87
2022-12-01T05:38:08.251Z,1.02
2022-12-01T05:40:38.196Z,1.11
2022-12-01T05:43:06.520Z,1.13
2022-12-01T05:45:35.051Z,1.05
2022-12-01T05:48:03.727Z,0.91
2022-12-01T05:50:32.008Z,1.05
2022-12-01T05:52:59.855Z,1.13
2022-12-01T05:55:27.702Z,1.07
2022-12-01T05:57:57.107Z,1.03
2022-12-01T06:00:25.097Z,0.92
2022-12-01T06:02:53.015Z,0.89
2022-12-01T06:05:20.789Z,1.02
2022-12-01T06:07:48.729Z,1.07
2022-12-01T06:10:16.453Z,0.89
2022-12-01T06:12:44.406Z,0.98
2022-12-01T06:15:14.149Z,1.04
2022-12-01T06:17:42.128Z,1.12
2022-12-01T06:20:11.148Z,1.05
2022-12-01T06:22:39.089Z,0.99
2022-12-01T06:25:08.145Z,1.11
2022-12-01T06:27:36.060Z,1.22
2022-12-01T06:30:04.589Z,1.20
2022-12-01T06:32:33.998Z,1.25
2022-12-01T06:35:01.781Z,1.18
2022-12-01T06:37:29.707Z,1.21
2022-12-01T06:39:57.549Z,0.96
2022-12-01T06:42:25.366Z,0.99
2022-12-01T06:44:53.265Z,0.91
2022-12-01T06:47:21.139Z,0.90
2022-12-01T06:49:50.652Z,1.08
2022-12-01T06:52:18.848Z,0.81
2022-12-01T06:54:46.559Z,1.10
2022-12-01T06:57:14.555Z,1.25
2022-12-01T06:59:42.693Z,1.09
2022-12-01T07:02:11.950Z,1.13
2022-12-01T07:04:39.840Z,1.12
2022-12-01T07:07:09.307Z,0.98
2022-12-01T07:09:37.170Z,0.82
2022-12-01T07:12:05.426Z,0.92
2022-12-01T07:14:33.168Z,1.04
2022-12-01T07:17:01.031Z,1.05
2022-12-01T07:19:28.904Z,1.07
2022-12-01T07:21:56.872Z,0.94
2022-12-01T07:24:26.041Z,1.09
2022-12-01T07:26:53.827Z,1.09
2022-12-01T07:29:21.579Z,1.16
2022-12-01T07:31:49.495Z,1.12
2022-12-01T07:34:17.237Z,1.22
2022-12-01T07:36:45.046Z,1.14
2022-12-01T07:39:12.821Z,1.16
2022-12-01T07:41:42.036Z,1.21
2022-12-01T07:44:10.899Z,1.07
2022-12-01T07:46:38.938Z,0.97
2022-12-01T07:49:08.518Z,1.07
2022-12-01T07:51:36.178Z,1.08
2022-12-01T07:54:06.350Z,1.11
2022-12-01T07:56:34.756Z,0.90
2022-12-01T07:59:04.169Z,1.22
2022-12-01T08:01:32.156Z,1.31
2022-12-01T08:04:00.713Z,1.32
2022-12-01T08:06:28.625Z,1.45
2022-12-01T08:08:56.372Z,1.44
2022-12-01T08:11:25.942Z,1.32
2022-12-01T08:13:55.043Z,1.38
2022-12-01T08:16:25.347Z,1.39
2022-12-01T08:18:53.476Z,1.52
2022-12-01T08:21:23.394Z,1.52
2022-12-01T08:23:55.386Z,1.44
2022-12-01T08:26:24.837Z,1.52
2022-12-01T08:28:52.909Z,1.50
2022-12-01T08:31:23.394Z,1.59
2022-12-01T08:33:53.103Z,1.32
2022-12-01T08:36:22.181Z,1.54
2022-12-01T08:38:52.530Z,1.41
2022-12-01T08:41:21.164Z,1.52
2022-12-01T08:43:58.104Z,1.60
2022-12-01T08:46:26.945Z,1.34
2022-12-01T08:48:57.984Z,1.26
2022-12-01T08:51:26.499Z,1.00
2022-12-01T08:53:56.531Z,1.08
2022-12-01T08:56:26.952Z,1.15
2022-12-01T08:58:55.600Z,1.21
2022-12-01T09:01:23.379Z,1.22
2022-12-01T09:04:05.127Z,1.46
2022-12-01T09:06:39.558Z,1.35
2022-12-01T09:09:07.612Z,1.37
2022-12-01T09:11:35.381Z,1.42
2022-12-01T09:14:03.211Z,1.40
2022-12-01T09:16:31.235Z,1.32
2022-12-01T09:18:59.481Z,1.31
2022-12-01T09:21:31.430Z,1.30
2022-12-01T09:24:01.956Z,1.37
2022-12-01T09:26:29.784Z,1.34
2022-12-01T09:28:59.588Z,1.28
2022-12-01T09:31:28.159Z,1.17
2022-12-01T09:33:57.453Z,1.33
2022-12-01T09:36:25.510Z,1.30
2022-12-01T09:38:53.546Z,1.54
2022-12-01T09:41:27.432Z,1.53
2022-12-01T09:44:00.599Z,1.31
2022-12-01T09:46:34.611Z,1.30
2022-12-01T09:49:04.627Z,1.44
2022-12-01T09:51:36.270Z,1.19
2022-12-01T09:54:04.628Z,1.30
2022-12-01T09:56:43.599Z,1.35
2022-12-01T09:59:19.714Z,1.49
2022-12-01T10:01:52.534Z,1.34
2022-12-01T10:04:26.658Z,1.33
2022-12-01T10:07:01.265Z,1.39
2022-12-01T10:09:36.539Z,1.37
2022-12-01T10:12:15.056Z,1.38
2022-12-01T10:14:46.012Z,1.38
2022-12-01T10:17:23.193Z,1.61
2022-12-01T10:19:59.525Z,1.46
2022-12-01T10:23:01.491Z,1.51
2022-12-01T10:25:37.934Z,1.63
2022-12-01T10:28:31.405Z,1.53
2022-12-01T10:31:07.854Z,1.40
2022-12-01T10:33:45.277Z,1.50
2022-12-01T10:36:13.182Z,1.37
2022-12-01T10:38:40.995Z,1.34
2022-12-01T10:41:15.393Z,1.54
2022-12-01T10:43:48.898Z,1.74
2022-12-01T10:46:24.667Z,1.73
2022-12-01T10:48:57.559Z,1.74
2022-12-01T10:51:26.366Z,1.65
2022-12-01T10:54:01.661Z,1.42
2022-12-01T10:56:46.304Z,1.46
2022-12-01T10:59:32.020Z,1.49
2022-12-01T11:02:02.000Z,1.50
2022-12-01T11:04:45.365Z,1.52
2022-12-01T11:07:19.886Z,1.45
2022-12-01T11:09:55.427Z,1.49
2022-12-01T11:12:24.705Z,1.68
2022-12-01T11:14:56.731Z,1.65
2022-12-01T11:17:35.869Z,1.56
2022-12-01T11:20:28.045Z,1.72
2022-12-01T11:23:25.680Z,1.72
2022-12-01T11:26:14.782Z,1.76
2022-12-01T11:28:52.823Z,1.62
2022-12-01T11:31:26.853Z,1.55
2022-12-01T11:33:56.179Z,1.81
2022-12-01T11:36:30.265Z,1.77
2022-12-01T11:39:01.249Z,1.86
2022-12-01T11:41:40.315Z,1.68
2022-12-01T11:47:26.888Z,1.86
2022-12-01T11:49:57.863Z,1.78
2022-12-01T11:52:29.882Z,1.63
2022-12-01T11:55:03.292Z,1.60
2022-12-01T11:57:34.846Z,1.94
2022-12-01T12:00:04.121Z,1.90
2022-12-01T12:02:43.273Z,1.98
2022-12-01T12:05:47.425Z,1.79
2022-12-01T12:08:27.609Z,1.82
2022-12-01T12:11:06.745Z,1.98
2022-12-01T12:13:55.303Z,2.00
2022-12-01T12:16:33.790Z,1.98
2022-12-01T12:19:15.519Z,1.83
2022-12-01T12:21:51.123Z,1.80
2022-12-01T12:24:37.318Z,1.98
2022-12-01T12:27:14.451Z,2.07
2022-12-01T12:29:58.808Z,2.11
2022-12-01T12:32:44.361Z,2.18
2022-12-01T12:35:34.474Z,2.03
2022-12-01T12:38:09.974Z,2.04
2022-12-01T12:40:43.747Z,2.12
2022-12-01T12:43:23.688Z,2.20
2022-12-01T12:46:02.913Z,2.24
2022-12-01T12:49:03.964Z,2.24
2022-12-01T12:51:40.629Z,2.27
2022-12-01T12:54:19.973Z,2.06
2022-12-01T12:56:50.334Z,1.84
2022-12-01T12:59:25.055Z,1.71
2022-12-01T13:02:00.105Z,1.89
2022-12-01T13:04:35.742Z,1.84
2022-12-01T13:07:09.941Z,1.97
2022-12-01T13:09:52.431Z,2.21
2022-12-01T13:12:27.379Z,2.19
2022-12-01T13:15:01.390Z,2.04
2022-12-01T13:17:34.491Z,1.96
2022-12-01T13:20:02.255Z,1.93
2022-12-01T13:22:34.790Z,2.03
2022-12-01T13:25:04.296Z,1.98
2022-12-01T13:27:35.574Z,2.00
2022-12-01T13:30:03.664Z,2.12
2022-12-01T13:32:37.607Z,2.18
2022-12-01T13:35:08.328Z,1.92
2022-12-01T13:37:39.987Z,1.84
2022-12-01T13:40:11.468Z,2.07
2022-12-01T13:42:40.014Z,2.03
2022-12-01T13:45:18.669Z,1.91
2022-12-01T13:47:54.436Z,1.69
2022-12-01T13:51:01.691Z,1.84
2022-12-01T13:53:33.797Z,2.00
2022-12-01T13:56:26.264Z,2.00
2022-12-01T13:58:55.576Z,2.05
2022-12-01T14:01:46.087Z,1.97
2022-12-01T14:04:26.663Z,2.09
2022-12-01T14:07:28.853Z,2.22
2022-12-01T14:10:09.000Z,2.27
2022-12-01T14:12:41.825Z,2.17
2022-12-01T14:15:28.787Z,2.20
2022-12-01T14:18:02.094Z,2.09
2022-12-01T14:20:33.758Z,2.13
2022-12-01T14:23:15.021Z,2.20
2022-12-01T14:25:58.913Z,2.05
2022-12-01T14:28:59.863Z,2.24
2022-12-01T14:32:25.870Z,2.11
2022-12-01T14:35:05.026Z,2.28
2022-12-01T14:37:45.209Z,2.21
2022-12-01T14:40:19.196Z,2.26
2022-12-01T14:43:11.719Z,2.25
2022-12-01T14:45:50.865Z,2.29
2022-12-01T14:48:25.402Z,2.33
2022-12-01T14:50:56.505Z,2.33
2022-12-01T14:53:28.070Z,2.28
2022-12-01T14:56:19.795Z,2.38
2022-12-01T14:58:57.963Z,2.35
2022-12-01T15:01:31.002Z,2.37
2022-12-01T15:04:00.553Z,2.34
2022-12-01T15:06:31.028Z,2.41
2022-12-01T15:09:32.988Z,2.22
2022-12-01T15:11:57.341Z,2.20
2022-12-01T15:14:35.553Z,2.01
2022-12-01T15:17:05.499Z,1.93
2022-12-01T15:19:36.638Z,2.07
2022-12-01T15:22:08.369Z,2.08
2022-12-01T15:24:36.325Z,2.20
2022-12-01T15:27:04.466Z,2.26
2022-12-01T15:29:38.704Z,2.30
2022-12-01T15:32:09.602Z,2.14
2022-12-01T15:34:40.665Z,2.07
2022-12-01T15:37:14.409Z,2.12
2022-12-01T15:39:46.572Z,1.88
2022-12-01T15:42:24.000Z,1.97
2022-12-01T15:45:01.078Z,1.82
2022-12-01T15:47:36.902Z,1.81
2022-12-01T15:50:06.203Z,1.91
2022-12-01T15:52:42.918Z,1.80
2022-12-01T15:55:23.865Z,1.92
2022-12-01T15:57:51.820Z,1.90
2022-12-01T16:00:23.062Z,1.92
2022-12-01T16:02:54.145Z,1.80
2022-12-01T16:05:26.071Z,1.83
2022-12-01T16:10:42.110Z,1.67
2022-12-01T16:13:45.139Z,1.46
2022-12-01T16:16:48.301Z,1.64
2022-12-01T16:19:28.006Z,1.71
2022-12-01T16:21:59.626Z,1.68
2022-12-01T16:24:31.276Z,1.53
2022-12-01T16:27:02.824Z,1.62
2022-12-01T16:29:35.085Z,1.64
2022-12-01T16:32:21.032Z,1.70
2022-12-01T16:34:50.057Z,1.66
2022-12-01T16:37:18.413Z,1.58
2022-12-01T16:39:46.537Z,1.50
2022-12-01T16:42:16.323Z,1.50
2022-12-01T16:44:46.307Z,1.52
2022-12-01T16:47:18.604Z,1.57
2022-12-01T16:49:46.582Z,1.63
2022-12-01T16:55:02.894Z,1.56
2022-12-01T16:57:30.926Z,1.40
2022-12-01T16:59:58.781Z,1.43
2022-12-01T17:02:28.204Z,1.50
2022-12-01T17:04:56.530Z,1.40
2022-12-01T17:07:24.459Z,1.45
2022-12-01T17:09:52.298Z,1.23
2022-12-01T17:12:20.243Z,1.34
2022-12-01T17:14:48.293Z,1.32
2022-12-01T17:17:16.258Z,1.46
2022-12-01T17:19:45.719Z,1.41
2022-12-01T17:22:13.557Z,1.43
2022-12-01T17:24:41.548Z,1.31
2022-12-01T17:27:09.348Z,1.36
2022-12-01T17:29:43.058Z,1.33
2022-12-01T17:32:14.744Z,1.28
2022-12-01T17:34:42.762Z,1.35
2022-12-01T17:37:17.515Z,1.23
2022-12-01T17:39:48.350Z,1.40
2022-12-01T17:42:16.156Z,1.39
2022-12-01T17:44:44.155Z,1.40
2022-12-01T17:47:12.539Z,1.45
2022-12-01T17:49:40.502Z,1.43
2022-12-01T17:52:09.040Z,1.24
2022-12-01T17:54:38.293Z,1.19
2022-12-01T17:57:07.398Z,1.29
2022-12-01T17:59:35.308Z,1.35
2022-12-01T18:02:03.381Z,1.24
2022-12-01T18:04:31.490Z,1.30
2022-12-01T18:06:59.649Z,1.27
2022-12-01T18:09:27.897Z,1.30
2022-12-01T18:11:57.785Z,1.26
2022-12-01T18:14:26.437Z,1.34
2022-12-01T18:16:54.515Z,1.21
2022-12-01T18:19:22.435Z,1.30
2022-12-01T18:21:50.644Z,1.27
2022-12-01T18:24:18.712Z,1.24
2022-12-01T18:26:46.618Z,1.30
2022-12-01T18:29:23.832Z,1.32
2022-12-01T18:31:51.710Z,1.43
2022-12-01T18:34:19.641Z,1.27
2022-12-01T18:36:47.864Z,1.29
2022-12-01T18:39:20.723Z,1.33
2022-12-01T18:41:49.188Z,1.24
2022-12-01T18:44:18.847Z,1.31
2022-12-01T18:46:46.990Z,1.43
2022-12-01T18:49:15.017Z,1.39
2022-12-01T18:51:43.074Z,1.35
2022-12-01T18:54:15.232Z,1.42
2022-12-01T18:56:43.333Z,1.47
2022-12-01T18:59:13.665Z,1.53
2022-12-01T19:01:45.855Z,1.53
2022-12-01T19:04:15.753Z,1.44
2022-12-01T19:06:45.521Z,1.55
2022-12-01T19:09:16.076Z,1.41
2022-12-01T19:11:44.457Z,1.43
2022-12-01T19:14:16.500Z,1.44
2022-12-01T19:16:46.115Z,1.38
2022-12-01T19:19:14.164Z,1.44
2022-12-01T19:21:42.998Z,1.57
2022-12-01T19:24:11.155Z,1.59
2022-12-01T19:26:39.460Z,1.66
2022-12-01T19:29:07.569Z,1.69
2022-12-01T19:31:35.485Z,1.59
2022-12-01T19:34:04.789Z,1.63
2022-12-01T19:36:32.910Z,1.65
2022-12-01T19:39:04.325Z,1.67
2022-12-01T19:41:35.256Z,1.80
2022-12-01T19:44:03.403Z,1.80
2022-12-01T19:46:31.408Z,1.84
2022-12-01T19:49:05.603Z,1.79
2022-12-01T19:51:40.797Z,1.83
2022-12-01T19:54:12.386Z,1.78
2022-12-01T19:56:40.321Z,1.76
2022-12-01T19:59:08.666Z,1.68
2022-12-01T20:01:36.730Z,1.70
2022-12-01T20:04:06.777Z,1.79
2022-12-01T20:06:36.758Z,1.72
2022-12-01T20:09:06.680Z,1.78
2022-12-01T20:11:35.826Z,1.77
2022-12-01T20:14:04.738Z,1.83
2022-12-01T20:16:33.192Z,1.85
2022-12-01T20:19:02.592Z,1.84
2022-12-01T20:21:35.005Z,1.85
2022-12-01T20:24:04.864Z,1.84
2022-12-01T20:26:34.726Z,1.87
2022-12-01T20:29:06.465Z,1.89
2022-12-01T20:31:35.005Z,1.87
2022-12-01T20:34:06.307Z,1.83
2022-12-01T20:36:35.864Z,1.84
2022-12-01T20:39:04.057Z,1.77
2022-12-01T20:41:31.866Z,1.82
2022-12-01T20:44:06.755Z,1.85
2022-12-01T20:46:35.431Z,1.86
2022-12-01T20:49:17.275Z,1.92
2022-12-01T20:51:47.266Z,1.92
2022-12-01T20:54:32.731Z,1.84
2022-12-01T20:57:01.410Z,1.78
2022-12-01T20:59:30.162Z,1.78
2022-12-01T21:01:58.171Z,1.83
2022-12-01T21:04:26.380Z,1.91
2022-12-01T21:06:57.783Z,1.88
2022-12-01T21:09:26.707Z,1.85
2022-12-01T21:12:12.086Z,1.88
2022-12-01T21:14:43.494Z,1.93
2022-12-01T21:17:22.988Z,1.95
2022-12-01T21:19:56.421Z,1.91
2022-12-01T21:22:26.533Z,1.81
2022-12-01T21:25:02.664Z,1.86
2022-12-01T21:27:30.951Z,1.76
2022-12-01T21:29:58.998Z,1.67
2022-12-01T21:32:31.086Z,1.77
2022-12-01T21:35:04.231Z,1.79
2022-12-01T21:37:33.824Z,1.81
2022-12-01T21:40:01.852Z,1.87
2022-12-01T21:42:32.860Z,1.88
2022-12-01T21:45:01.830Z,1.89
2022-12-01T21:47:31.946Z,1.88
2022-12-01T21:50:03.808Z,1.85
2022-12-01T21:52:40.180Z,1.78
2022-12-01T21:55:38.952Z,1.72
2022-12-01T21:58:24.362Z,1.79
2022-12-01T22:00:54.991Z,1.81
2022-12-01T22:03:40.991Z,1.82
2022-12-01T22:06:35.787Z,1.73
2022-12-01T22:09:15.464Z,1.79
2022-12-01T22:11:48.525Z,1.89
2022-12-01T22:14:20.230Z,1.85
2022-12-01T22:16:52.519Z,1.87
2022-12-01T22:19:29.643Z,1.76
2022-12-01T22:22:15.568Z,1.79
2022-12-01T22:24:45.103Z,1.76
2022-12-01T22:27:33.306Z,1.77
2022-12-01T22:30:03.877Z,1.79
2022-12-01T22:32:53.260Z,1.74
2022-12-01T22:35:29.760Z,1.85
2022-12-01T22:38:22.460Z,1.77
2022-12-01T22:40:57.586Z,1.81
2022-12-01T22:43:43.900Z,1.80
2022-12-01T22:46:17.944Z,1.87
2022-12-01T22:48:47.875Z,1.94
2022-12-01T22:51:30.680Z,1.95
2022-12-01T22:54:02.135Z,1.87
2022-12-01T22:56:37.713Z,1.96
2022-12-01T22:59:20.638Z,2.06
2022-12-01T23:01:50.945Z,1.98
2022-12-01T23:04:26.696Z,2.01
2022-12-01T23:07:09.691Z,2.10
2022-12-01T23:09:44.564Z,2.03
2022-12-01T23:12:29.612Z,1.94
2022-12-01T23:15:17.071Z,1.95
2022-12-01T23:17:44.976Z,1.98
2022-12-01T23:20:33.682Z,1.97
2022-12-01T23:23:06.711Z,1.95
2022-12-01T23:25:37.362Z,1.87
2022-12-01T23:28:07.479Z,1.97
2022-12-01T23:30:38.011Z,1.94
2022-12-01T23:33:19.298Z,1.83
2022-12-01T23:35:52.099Z,1.93
2022-12-01T23:38:22.224Z,1.88
2022-12-01T23:40:52.488Z,1.97
2022-12-01T23:43:22.686Z,2.05
2022-12-01T23:45:59.415Z,2.00
2022-12-01T23:48:33.696Z,1.99
2022-12-01T23:51:02.185Z,1.99
2022-12-01T23:53:31.655Z,2.07
2022-12-01T23:56:04.579Z,2.03
2022-12-01T23:58:32.418Z,2.06
